createdAt,value
2023-04-05T00:05:43.430Z,1.40
2023-04-05T00:12:25.894Z,1.50
2023-04-05T00:19:08.970Z,1.60
2023-04-05T00:25:51.244Z,1.60
2023-04-05T00:32:33.529Z,1.60
2023-04-05T00:39:16.076Z,1.50
2023-04-05T00:45:58.478Z,1.40
2023-04-05T00:52:41.672Z,1.30
2023-04-05T00:59:24.103Z,1.20
2023-04-05T01:06:18.366Z,1.30
2023-04-05T01:13:01.246Z,1.30
2023-04-05T01:19:48.134Z,1.10
2023-04-05T01:27:05.779Z,1.10
2023-04-05T01:33:58.769Z,1.10
2023-04-05T01:40:41.781Z,1.10
2023-04-05T01:47:24.725Z,1.00
2023-04-05T01:54:07.114Z,1.00
2023-04-05T02:00:49.425Z,0.90
2023-04-05T02:07:31.752Z,1.00
2023-04-05T02:14:14.237Z,1.00
2023-04-05T02:21:05.140Z,1.00
2023-04-05T02:27:48.548Z,0.90
2023-04-05T02:34:31.127Z,0.90
2023-04-05T02:41:14.024Z,0.90
2023-04-05T02:47:56.396Z,0.90
2023-04-05T02:54:39.077Z,0.90
2023-04-05T03:01:22.595Z,0.70
2023-04-05T03:08:05.648Z,0.70
2023-04-05T03:14:49.034Z,0.60
2023-04-05T03:21:35.665Z,0.50
2023-04-05T03:28:25.989Z,0.50
2023-04-05T03:35:13.157Z,0.40
2023-04-05T03:41:58.944Z,0.30
2023-04-05T03:48:41.324Z,0.30
2023-04-05T03:55:25.118Z,0.20
2023-04-05T04:02:08.361Z,0.20
2023-04-05T04:08:51.327Z,0.20
2023-04-05T04:15:33.798Z,0.10
2023-04-05T04:22:33.028Z,-0.10
2023-04-05T04:29:46.611Z,-0.10
2023-04-05T04:36:46.505Z,-0.20
2023-04-05T04:43:49.291Z,-0.20
2023-04-05T04:50:44.509Z,-0.20
2023-04-05T04:57:27.084Z,-0.30
2023-04-05T05:04:10.434Z,-0.30
2023-04-05T05:10:55.287Z,-0.10
2023-04-05T05:17:39.280Z,-0.10
2023-04-05T05:24:22.268Z,-0.10
2023-04-05T05:31:04.926Z,0.20
2023-04-05T05:37:50.107Z,0.30
2023-04-05T05:44:32.748Z,0.40
2023-04-05T05:51:15.072Z,0.40
2023-04-05T05:57:57.367Z,0.60
2023-04-05T06:04:39.738Z,0.90
2023-04-05T06:11:24.713Z,4.60
2023-04-05T06:18:07.068Z,6.30
2023-04-05T06:31:34.303Z,10.30
2023-04-05T06:38:16.963Z,12.30
2023-04-05T06:44:59.361Z,12.80
2023-04-05T06:51:41.672Z,12.10
2023-04-05T06:58:24.954Z,11.40
2023-04-05T07:05:08.960Z,11.90
2023-04-05T07:11:51.319Z,13.80
2023-04-05T07:18:33.685Z,15.10
2023-04-05T07:25:16.012Z,15.40
2023-04-05T07:31:58.401Z,16.50
2023-04-05T07:38:41.831Z,16.90
2023-04-05T07:45:24.228Z,18.10
2023-04-05T07:52:06.670Z,17.90
2023-04-05T07:58:50.440Z,19.20
2023-04-05T08:05:33.044Z,19.60
2023-04-05T08:12:15.382Z,19.10
2023-04-05T08:18:57.739Z,20.30
2023-04-05T08:25:42.468Z,19.60
2023-04-05T08:32:25.537Z,18.80
2023-04-05T08:39:07.906Z,18.30
2023-04-05T08:45:51.684Z,19.40
2023-04-05T08:52:37.848Z,20.20
2023-04-05T08:59:21.651Z,20.40
2023-04-05T09:06:07.540Z,18.70
2023-04-05T09:12:53.204Z,21.30
2023-04-05T09:19:35.950Z,20.40
2023-04-05T09:26:25.713Z,20.60
2023-04-05T09:33:18.646Z,19.90
2023-04-05T09:40:06.778Z,18.60
2023-04-05T09:46:49.142Z,20.50
2023-04-05T09:53:31.546Z,21.50
2023-04-05T10:00:21.969Z,19.00
2023-04-05T10:07:04.593Z,17.60
2023-04-05T10:13:49.060Z,16.80
2023-04-05T10:20:35.943Z,17.10
2023-04-05T10:27:27.828Z,17.60
2023-04-05T10:34:35.229Z,17.10
2023-04-05T10:41:17.739Z,16.20
2023-04-05T10:48:10.874Z,17.30
2023-04-05T10:54:56.572Z,15.10
2023-04-05T11:01:40.822Z,12.40
2023-04-05T11:08:23.972Z,11.80
2023-04-05T11:15:29.488Z,11.00
2023-04-05T11:22:13.034Z,11.60
2023-04-05T11:28:57.813Z,11.80
2023-04-05T11:35:40.160Z,12.10
2023-04-05T11:42:22.990Z,11.90
2023-04-05T11:49:05.425Z,11.20
2023-04-05T11:55:51.229Z,11.30
2023-04-05T12:02:35.015Z,11.20
2023-04-05T12:09:17.384Z,10.70
2023-04-05T12:16:01.547Z,11.20
2023-04-05T12:22:45.820Z,11.10
2023-04-05T12:29:28.183Z,11.00
2023-04-05T12:36:11.635Z,10.90
2023-04-05T12:43:04.960Z,10.30
2023-04-05T12:49:47.312Z,10.10
2023-04-05T12:56:30.473Z,10.40
2023-04-05T13:03:21.221Z,10.60
2023-04-05T13:10:04.434Z,10.40
2023-04-05T13:16:46.965Z,11.10
2023-04-05T13:23:29.292Z,11.30
2023-04-05T13:30:12.147Z,11.50
2023-04-05T13:36:54.480Z,11.20
2023-04-05T13:43:36.846Z,10.50
2023-04-05T13:50:19.434Z,10.90
2023-04-05T13:57:01.887Z,11.20
2023-04-05T14:03:44.478Z,10.90
2023-04-05T14:10:26.991Z,11.00
2023-04-05T14:17:11.554Z,11.20
2023-04-05T14:23:57.144Z,11.20
2023-04-05T14:30:40.786Z,11.30
2023-04-05T14:37:23.369Z,11.10
2023-04-05T14:44:06.058Z,11.10
2023-04-05T14:50:48.443Z,11.00
2023-04-05T14:57:30.878Z,11.10
2023-04-05T15:04:13.548Z,11.50
2023-04-05T15:10:56.347Z,11.60
2023-04-05T15:17:38.878Z,11.40
2023-04-05T15:24:21.376Z,11.20
2023-04-05T15:31:03.838Z,11.30
2023-04-05T15:37:46.321Z,11.50
2023-04-05T15:44:29.009Z,11.50
2023-04-05T15:51:12.116Z,11.20
2023-04-05T15:57:55.076Z,11.20
2023-04-05T16:04:39.147Z,11.10
2023-04-05T16:11:22.280Z,10.70
2023-04-05T16:18:04.996Z,10.60
2023-04-05T16:24:47.983Z,10.70
2023-04-05T16:31:30.711Z,10.50
2023-04-05T16:38:13.717Z,10.70
2023-04-05T16:44:56.937Z,10.60
2023-04-05T16:51:39.339Z,10.40
2023-04-05T16:58:21.701Z,10.30
2023-04-05T17:05:04.449Z,10.30
2023-04-05T17:11:47.097Z,10.00
2023-04-05T17:18:29.509Z,10.00
2023-04-05T17:25:11.954Z,10.00
2023-04-05T17:31:55.161Z,9.80
2023-04-05T17:38:37.561Z,9.60
2023-04-05T17:45:19.942Z,9.40
2023-04-05T17:52:03.546Z,9.30
2023-04-05T17:58:46.250Z,9.20
2023-04-05T18:05:28.781Z,9.00
2023-04-05T18:12:11.273Z,8.70
2023-04-05T18:18:53.864Z,8.40
2023-04-05T18:25:36.278Z,8.20
2023-04-05T18:32:18.778Z,7.90
2023-04-05T18:39:05.405Z,7.60
2023-04-05T18:45:48.050Z,7.60
2023-04-05T18:52:34.233Z,7.50
2023-04-05T18:59:17.366Z,7.30
2023-04-05T19:06:00.052Z,7.10
2023-04-05T19:12:43.020Z,7.00
2023-04-05T19:19:25.364Z,6.90
2023-04-05T19:26:08.118Z,6.60
2023-04-05T19:32:53.370Z,6.20
2023-04-05T19:39:36.572Z,6.10
2023-04-05T19:46:19.760Z,6.00
2023-04-05T19:53:02.313Z,5.90
2023-04-05T19:59:44.813Z,5.80
2023-04-05T20:06:27.921Z,5.80
2023-04-05T20:13:10.307Z,5.60
2023-04-05T20:19:58.975Z,5.50
2023-04-05T20:26:41.842Z,5.20
2023-04-05T20:33:46.803Z,4.80
2023-04-05T20:40:29.231Z,4.60
2023-04-05T20:47:11.649Z,4.60
2023-04-05T20:53:54.106Z,4.60
2023-04-05T21:00:36.541Z,4.50
2023-04-05T21:07:19.001Z,4.40
2023-04-05T21:14:01.867Z,4.60
2023-04-05T21:20:50.547Z,4.40
2023-04-05T21:27:33.860Z,4.20
2023-04-05T21:34:16.579Z,4.20
2023-04-05T21:40:59.005Z,4.20
2023-04-05T21:47:41.740Z,3.80
2023-04-05T21:54:24.239Z,4.00
2023-04-05T22:01:06.732Z,3.70
2023-04-05T22:07:49.378Z,3.70
2023-04-05T22:14:31.899Z,3.50
2023-04-05T22:21:14.264Z,3.20
2023-04-05T22:28:00.563Z,3.10
2023-04-05T22:34:43.428Z,3.00
2023-04-05T22:41:26.310Z,3.00
2023-04-05T22:48:08.906Z,2.90
2023-04-05T22:54:51.564Z,2.80
2023-04-05T23:01:34.103Z,2.70
2023-04-05T23:08:16.486Z,2.70
2023-04-05T23:14:58.866Z,2.50
2023-04-05T23:21:41.653Z,2.30
2023-04-05T23:28:24.010Z,2.20
2023-04-05T23:35:06.613Z,2.20
2023-04-05T23:41:49.052Z,2.30
2023-04-05T23:48:31.906Z,2.40
2023-04-05T23:55:14.327Z,2.20
